Time;durP1;ratioP1;P1;durP2;ratioP2;P2;SDS_P1;SDS_P2;PMS_P1;PMS_P2;Temp;Humidity;BMP_temperature;BMP_pressure;BME280_temperature;BME280_humidity;BME280_pressure;Samples;Min_cycle;Max_cycle;Signal;HPM_P1;HPM_P2
2023/03/17 00:00:06;;;;;;;;;;;7.60;99.90;;;;;;5016412;28;209914;-73
2023/03/17 00:02:33;;;;;;;;;;;7.60;99.90;;;;;;5052203;28;19928;-74
2023/03/17 00:04:59;;;;;;;;;;;7.60;99.90;;;;;;4997044;28;218019;-73
2023/03/17 00:07:25;;;;;;;;;;;7.60;99.90;;;;;;5057800;28;20444;-73
2023/03/17 00:09:51;;;;;;;;;;;7.60;99.90;;;;;;4998867;28;96520;-72
2023/03/17 00:12:18;;;;;;;;;;;7.60;99.90;;;;;;5057147;28;19931;-73
2023/03/17 00:14:45;;;;;;;;;;;7.60;99.90;;;;;;5013957;28;207990;-72
2023/03/17 00:17:14;;;;;;;;;;;7.60;99.90;;;;;;5061035;28;19924;-73
2023/03/17 00:19:41;;;;;;;;;;;7.60;99.90;;;;;;4997429;28;211139;-73
2023/03/17 00:22:17;;;;;;;;;;;7.50;99.90;;;;;;5054624;28;20433;-73
2023/03/17 00:24:43;;;;;;;;;;;7.50;99.90;;;;;;5017105;28;206437;-74
2023/03/17 00:27:11;;;;;;;;;;;7.50;99.90;;;;;;5071329;28;20384;-72
2023/03/17 00:29:37;;;;;;;;;;;7.50;99.90;;;;;;5014637;28;208952;-73
2023/03/17 00:32:03;;;;;;;;;;;7.50;99.90;;;;;;5074258;28;20289;-72
2023/03/17 00:34:29;;;;;;;;;;;7.60;99.90;;;;;;5015335;28;205163;-71
2023/03/17 00:36:55;;;;;;;;;;;7.50;99.90;;;;;;5068464;28;19927;-72
2023/03/17 00:39:23;;;;;;;;;;;7.60;99.90;;;;;;5003363;28;201158;-73
2023/03/17 00:41:49;;;;;;;;;;;7.50;99.90;;;;;;5049291;28;19935;-73
2023/03/17 00:44:14;;;;;;;;;;;7.60;99.90;;;;;;5019343;28;213119;-72
2023/03/17 00:46:40;;;;;;;;;;;7.60;99.90;;;;;;5058485;28;19928;-72
2023/03/17 00:49:13;;;;;;;;;;;7.70;99.90;;;;;;4998832;28;207929;-72
2023/03/17 00:51:39;;;;;;;;;;;7.70;99.90;;;;;;5047523;28;19928;-73
2023/03/17 00:54:05;;;;;;;;;;;7.60;99.90;;;;;;5003278;28;205545;-73
2023/03/17 00:56:31;;;;;;;;;;;7.60;99.90;;;;;;5046527;28;19936;-73
2023/03/17 00:58:57;;;;;;;;;;;7.60;99.90;;;;;;5005775;28;209123;-73
2023/03/17 01:01:23;;;;;;;;;;;7.60;99.90;;;;;;5052586;28;19921;-73
2023/03/17 01:03:50;;;;;;;;;;;7.60;99.90;;;;;;4987294;28;208712;-73
2023/03/17 01:06:16;;;;;;;;;;;7.60;99.90;;;;;;5042498;28;19924;-73
2023/03/17 01:08:43;;;;;;;;;;;7.70;99.90;;;;;;4999011;28;208561;-72
2023/03/17 01:11:13;;;;;;;;;;;7.60;99.90;;;;;;5031670;28;19947;-73
2023/03/17 01:13:39;;;;;;;;;;;7.70;99.90;;;;;;5035555;28;211840;-73
2023/03/17 01:16:08;;;;;;;;;;;7.60;99.90;;;;;;5056596;28;19925;-72
2023/03/17 01:18:34;;;;;;;;;;;7.60;99.90;;;;;;5038086;28;208970;-72
2023/03/17 01:21:00;;;;;;;;;;;7.60;99.90;;;;;;5049445;28;123652;-72
2023/03/17 01:23:26;;;;;;;;;;;7.60;99.90;;;;;;5079842;28;20407;-74
2023/03/17 01:25:53;;;;;;;;;;;7.60;99.90;;;;;;5007308;28;206788;-73
2023/03/17 01:28:19;;;;;;;;;;;7.60;99.90;;;;;;5075708;28;20558;-73
2023/03/17 01:30:46;;;;;;;;;;;7.60;99.90;;;;;;4988037;28;206276;-73
2023/03/17 01:33:13;;;;;;;;;;;7.60;99.90;;;;;;5054448;28;20401;-73
2023/03/17 01:35:40;;;;;;;;;;;7.60;99.90;;;;;;5020507;28;206458;-73
2023/03/17 01:38:07;;;;;;;;;;;7.60;99.90;;;;;;5058859;28;19936;-72
2023/03/17 01:40:53;;;;;;;;;;;7.60;99.90;;;;;;4985867;28;208952;-73
2023/03/17 01:43:21;;;;;;;;;;;7.60;99.90;;;;;;5057997;28;19927;-73
2023/03/17 01:46:05;;;;;;;;;;;7.60;99.90;;;;;;5002451;28;211796;-73
2023/03/17 01:49:03;;;;;;;;;;;7.60;99.90;;;;;;5055959;28;209868;-73
2023/03/17 01:51:31;;;;;;;;;;;7.60;99.90;;;;;;5003076;28;132284;-73
2023/03/17 01:53:58;;;;;;;;;;;7.60;99.90;;;;;;5024301;28;209862;-73
2023/03/17 01:56:24;;;;;;;;;;;7.60;99.90;;;;;;5078690;28;19920;-73
2023/03/17 01:58:53;;;;;;;;;;;7.50;99.90;;;;;;5024055;27;211632;-73
2023/03/17 02:01:22;;;;;;;;;;;7.50;99.90;;;;;;5099602;27;19928;-73
2023/03/17 02:03:48;;;;;;;;;;;7.50;99.90;;;;;;5004989;28;221573;-74
2023/03/17 02:06:14;;;;;;;;;;;7.50;99.90;;;;;;5072450;28;19924;-74
2023/03/17 02:08:40;;;;;;;;;;;7.50;99.90;;;;;;5018807;28;209890;-74
2023/03/17 02:11:07;;;;;;;;;;;7.50;99.90;;;;;;5094196;27;19928;-72
2023/03/17 02:13:33;;;;;;;;;;;7.50;99.90;;;;;;5043771;28;212376;-73
2023/03/17 02:15:59;;;;;;;;;;;7.50;99.90;;;;;;5061900;27;87657;-73
2023/03/17 02:18:25;;;;;;;;;;;7.50;99.90;;;;;;5063229;28;21416;-72
2023/03/17 02:21:10;;;;;;;;;;;7.50;99.90;;;;;;5043746;27;207017;-72
2023/03/17 02:23:36;;;;;;;;;;;7.50;99.90;;;;;;5037107;28;209844;-72
2023/03/17 02:26:04;;;;;;;;;;;7.50;99.90;;;;;;5027128;28;20332;-72
2023/03/17 02:28:30;;;;;;;;;;;7.50;99.90;;;;;;5064172;28;19927;-72
2023/03/17 02:30:56;;;;;;;;;;;7.50;99.90;;;;;;5002452;28;127042;-73
2023/03/17 02:33:22;;;;;;;;;;;7.50;99.90;;;;;;5060506;28;19925;-73
2023/03/17 02:35:48;;;;;;;;;;;7.50;99.90;;;;;;5013500;28;192250;-73
2023/03/17 02:38:14;;;;;;;;;;;7.50;99.90;;;;;;5064958;28;20396;-73
2023/03/17 02:40:40;;;;;;;;;;;7.50;99.90;;;;;;4975203;28;176316;-73
2023/03/17 02:43:06;;;;;;;;;;;7.50;99.90;;;;;;5078855;28;19924;-73
2023/03/17 02:45:32;;;;;;;;;;;7.50;99.90;;;;;;5021584;28;121153;-73
2023/03/17 02:47:58;;;;;;;;;;;7.40;99.90;;;;;;5080481;28;20165;-73
2023/03/17 02:50:26;;;;;;;;;;;7.40;99.90;;;;;;5004394;28;201217;-73
2023/03/17 02:52:52;;;;;;;;;;;7.40;99.90;;;;;;5076563;28;19928;-73
2023/03/17 02:55:19;;;;;;;;;;;7.40;99.90;;;;;;5034426;28;209600;-73
2023/03/17 02:57:45;;;;;;;;;;;7.40;99.90;;;;;;5062588;28;19945;-73
2023/03/17 03:00:13;;;;;;;;;;;7.40;99.90;;;;;;5008843;28;209260;-73
2023/03/17 03:02:39;;;;;;;;;;;7.40;99.90;;;;;;5058154;28;19935;-73
2023/03/17 03:05:06;;;;;;;;;;;7.40;99.90;;;;;;4993567;28;205367;-73
2023/03/17 03:07:32;;;;;;;;;;;7.40;99.90;;;;;;5069152;28;19924;-72
2023/03/17 03:09:58;;;;;;;;;;;7.50;99.90;;;;;;5009248;28;206668;-72
2023/03/17 03:12:24;;;;;;;;;;;7.40;99.90;;;;;;5047529;28;20283;-73
2023/03/17 03:14:50;;;;;;;;;;;7.40;99.90;;;;;;5017922;28;212694;-73
2023/03/17 03:17:16;;;;;;;;;;;7.40;99.90;;;;;;5078758;28;19935;-72
2023/03/17 03:19:42;;;;;;;;;;;7.40;99.90;;;;;;4990068;28;207352;-72
2023/03/17 03:22:08;;;;;;;;;;;7.40;99.90;;;;;;5054390;28;19939;-73
2023/03/17 03:24:34;;;;;;;;;;;7.40;99.90;;;;;;5007823;28;212391;-72
2023/03/17 03:27:00;;;;;;;;;;;7.40;99.90;;;;;;5046222;28;19932;-73
2023/03/17 03:29:26;;;;;;;;;;;7.40;99.90;;;;;;5016448;28;174177;-73
2023/03/17 03:31:52;;;;;;;;;;;7.40;99.90;;;;;;5071455;28;19921;-73
2023/03/17 03:34:18;;;;;;;;;;;7.40;99.90;;;;;;5005849;28;208576;-73
2023/03/17 03:36:44;;;;;;;;;;;7.40;99.90;;;;;;5076065;28;19928;-73
2023/03/17 03:39:10;;;;;;;;;;;7.40;99.90;;;;;;5023654;28;212446;-73
2023/03/17 03:41:36;;;;;;;;;;;7.40;99.90;;;;;;5071399;28;19927;-73
2023/03/17 03:44:01;;;;;;;;;;;7.40;99.90;;;;;;5018501;28;207137;-72
2023/03/17 03:46:27;;;;;;;;;;;7.40;99.90;;;;;;5065930;28;20407;-72
2023/03/17 03:48:54;;;;;;;;;;;7.40;99.90;;;;;;5010089;28;208896;-73
2023/03/17 03:51:20;;;;;;;;;;;7.40;99.90;;;;;;5075267;28;19936;-73
2023/03/17 03:53:47;;;;;;;;;;;7.40;99.90;;;;;;5005115;28;209263;-74
2023/03/17 03:56:13;;;;;;;;;;;7.40;99.90;;;;;;5071816;28;19920;-74
2023/03/17 03:58:40;;;;;;;;;;;7.40;99.90;;;;;;5029707;28;212283;-74
2023/03/17 04:01:08;;;;;;;;;;;7.40;99.90;;;;;;5046776;28;19920;-73
2023/03/17 04:03:35;;;;;;;;;;;7.40;99.90;;;;;;5041175;28;208520;-73
2023/03/17 04:06:01;;;;;;;;;;;7.30;99.90;;;;;;5038847;28;19935;-73
2023/03/17 04:08:27;;;;;;;;;;;7.30;99.90;;;;;;5056384;28;19931;-73
2023/03/17 04:10:52;;;;;;;;;;;7.30;99.90;;;;;;5032783;27;228528;-73
2023/03/17 04:13:18;;;;;;;;;;;7.30;99.90;;;;;;5062020;28;19932;-73
2023/03/17 04:15:44;;;;;;;;;;;7.30;99.90;;;;;;4994474;28;209288;-73
2023/03/17 04:18:10;;;;;;;;;;;7.30;99.90;;;;;;5080580;28;19931;-73
2023/03/17 04:20:37;;;;;;;;;;;7.30;99.90;;;;;;5007543;28;212854;-73
2023/03/17 04:23:03;;;;;;;;;;;7.30;99.90;;;;;;5070659;28;19943;-73
2023/03/17 04:25:29;;;;;;;;;;;7.30;99.90;;;;;;5019763;28;210391;-73
2023/03/17 04:27:55;;;;;;;;;;;7.30;99.90;;;;;;5082278;28;19946;-73
2023/03/17 04:30:21;;;;;;;;;;;7.30;99.90;;;;;;5014639;28;208844;-73
2023/03/17 04:32:47;;;;;;;;;;;7.40;99.90;;;;;;5074270;28;19930;-73
2023/03/17 04:35:14;;;;;;;;;;;7.40;99.90;;;;;;5005824;28;212545;-73
2023/03/17 04:37:40;;;;;;;;;;;7.30;99.90;;;;;;5070584;28;19947;-73
2023/03/17 04:40:08;;;;;;;;;;;7.30;99.90;;;;;;5029957;28;215871;-73
2023/03/17 04:42:35;;;;;;;;;;;7.30;99.90;;;;;;5063950;28;19921;-73
2023/03/17 04:45:02;;;;;;;;;;;7.30;99.90;;;;;;5026014;28;214906;-73
2023/03/17 04:47:28;;;;;;;;;;;7.30;99.90;;;;;;5064070;28;19951;-72
2023/03/17 04:49:54;;;;;;;;;;;7.30;99.90;;;;;;5020552;28;206240;-72
2023/03/17 04:52:20;;;;;;;;;;;7.30;99.90;;;;;;5088889;28;20018;-72
2023/03/17 04:54:46;;;;;;;;;;;7.30;99.90;;;;;;5032791;28;208584;-73
2023/03/17 04:57:12;;;;;;;;;;;7.30;99.90;;;;;;5089800;28;19924;-73
2023/03/17 04:59:37;;;;;;;;;;;7.30;99.90;;;;;;5022447;28;211588;-73
2023/03/17 05:02:03;;;;;;;;;;;7.30;99.90;;;;;;5057812;28;19936;-73
2023/03/17 05:04:29;;;;;;;;;;;7.30;99.90;;;;;;4990363;28;193270;-73
2023/03/17 05:06:57;;;;;;;;;;;7.30;99.90;;;;;;5045654;28;19929;-73
2023/03/17 05:09:23;;;;;;;;;;;7.30;99.90;;;;;;5018428;28;194458;-73
2023/03/17 05:11:50;;;;;;;;;;;7.20;99.90;;;;;;5056540;28;20542;-73
2023/03/17 05:14:16;;;;;;;;;;;7.20;99.90;;;;;;5001888;28;206958;-73
2023/03/17 05:16:45;;;;;;;;;;;7.20;99.90;;;;;;5045977;28;19932;-73
2023/03/17 05:19:11;;;;;;;;;;;7.30;99.90;;;;;;5034693;27;212027;-73
2023/03/17 05:21:37;;;;;;;;;;;7.30;99.90;;;;;;5092544;28;20307;-73
2023/03/17 05:24:03;;;;;;;;;;;7.30;99.90;;;;;;5022468;28;212706;-73
2023/03/17 05:26:28;;;;;;;;;;;7.30;99.90;;;;;;5078498;27;20579;-72
2023/03/17 05:28:54;;;;;;;;;;;7.40;99.90;;;;;;5032202;28;208868;-73
2023/03/17 05:31:20;;;;;;;;;;;7.40;99.90;;;;;;5082521;28;19926;-73
2023/03/17 05:33:48;;;;;;;;;;;7.40;99.90;;;;;;5021808;28;211511;-73
2023/03/17 05:36:14;;;;;;;;;;;7.50;99.90;;;;;;5065263;28;19954;-74
2023/03/17 05:38:41;;;;;;;;;;;7.50;99.90;;;;;;5008318;28;208572;-73
2023/03/17 05:41:07;;;;;;;;;;;7.40;99.90;;;;;;5077211;28;20567;-73
2023/03/17 05:43:33;;;;;;;;;;;7.50;99.90;;;;;;5045596;28;207693;-73
2023/03/17 05:45:59;;;;;;;;;;;7.50;99.90;;;;;;5016444;28;212293;-73
2023/03/17 05:48:25;;;;;;;;;;;7.50;99.90;;;;;;5085360;28;19927;-73
2023/03/17 05:50:51;;;;;;;;;;;7.50;99.90;;;;;;5002478;28;207521;-73
2023/03/17 05:53:17;;;;;;;;;;;7.50;99.90;;;;;;5061353;28;20337;-73
2023/03/17 05:55:43;;;;;;;;;;;7.60;99.90;;;;;;5026047;28;209726;-73
2023/03/17 05:58:09;;;;;;;;;;;7.60;99.90;;;;;;5078889;28;19936;-74
2023/03/17 06:00:36;;;;;;;;;;;7.60;99.90;;;;;;5037014;28;205005;-73
2023/03/17 06:03:02;;;;;;;;;;;7.60;99.90;;;;;;5099002;28;19931;-73
2023/03/17 06:05:29;;;;;;;;;;;7.50;99.90;;;;;;4970537;28;203739;-73
2023/03/17 06:07:55;;;;;;;;;;;7.60;99.90;;;;;;5058167;28;19929;-73
2023/03/17 06:10:21;;;;;;;;;;;7.60;99.90;;;;;;5019200;28;212573;-73
2023/03/17 06:12:47;;;;;;;;;;;7.60;99.90;;;;;;5065780;28;19932;-73
2023/03/17 06:15:14;;;;;;;;;;;7.60;99.90;;;;;;4997853;28;209043;-73
2023/03/17 06:17:40;;;;;;;;;;;7.60;99.90;;;;;;5062858;28;20337;-73
2023/03/17 06:20:06;;;;;;;;;;;7.60;99.90;;;;;;5011786;28;206870;-73
2023/03/17 06:22:32;;;;;;;;;;;7.60;99.90;;;;;;5063375;28;19928;-73
2023/03/17 06:24:58;;;;;;;;;;;7.60;99.90;;;;;;4992432;28;213403;-73
2023/03/17 06:27:24;;;;;;;;;;;7.70;99.90;;;;;;5048694;28;19944;-73
2023/03/17 06:29:50;;;;;;;;;;;7.60;99.90;;;;;;5014951;28;208019;-73
2023/03/17 06:32:16;;;;;;;;;;;7.70;99.90;;;;;;5079571;28;19924;-73
2023/03/17 06:34:42;;;;;;;;;;;7.70;99.90;;;;;;5015671;28;209536;-73
2023/03/17 06:37:09;;;;;;;;;;;7.70;99.90;;;;;;5061965;28;20427;-74
2023/03/17 06:39:36;;;;;;;;;;;7.80;99.90;;;;;;5016678;28;208966;-73
2023/03/17 06:42:02;;;;;;;;;;;7.80;99.90;;;;;;5071717;28;19947;-74
2023/03/17 06:44:28;;;;;;;;;;;7.80;99.90;;;;;;4996645;28;208811;-73
2023/03/17 06:46:54;;;;;;;;;;;7.80;99.90;;;;;;5063028;28;20054;-73
2023/03/17 06:49:20;;;;;;;;;;;7.70;99.90;;;;;;5038712;28;174662;-73
2023/03/17 06:51:46;;;;;;;;;;;7.80;99.90;;;;;;5083836;28;19924;-73
2023/03/17 06:54:12;;;;;;;;;;;7.80;99.90;;;;;;5016150;28;208973;-73
2023/03/17 06:56:38;;;;;;;;;;;7.80;99.90;;;;;;5071407;28;20330;-72
2023/03/17 06:59:04;;;;;;;;;;;7.80;99.90;;;;;;5010441;28;214238;-72
2023/03/17 07:01:30;;;;;;;;;;;7.90;99.90;;;;;;5074769;28;20518;-73
2023/03/17 07:03:56;;;;;;;;;;;7.90;99.90;;;;;;5002874;28;206477;-73
2023/03/17 07:06:22;;;;;;;;;;;8.00;99.90;;;;;;5048516;28;19928;-73
2023/03/17 07:08:49;;;;;;;;;;;8.00;99.90;;;;;;5008752;28;216314;-75
2023/03/17 07:11:15;;;;;;;;;;;8.20;99.90;;;;;;5074979;28;19931;-74
2023/03/17 07:13:41;;;;;;;;;;;8.20;99.90;;;;;;5025384;28;209017;-74
2023/03/17 07:16:08;;;;;;;;;;;8.30;99.90;;;;;;5096150;27;19920;-74
2023/03/17 07:18:34;;;;;;;;;;;8.20;99.90;;;;;;5064185;28;208746;-74
2023/03/17 07:21:01;;;;;;;;;;;8.30;99.90;;;;;;5041314;28;24849;-74
2023/03/17 07:23:28;;;;;;;;;;;8.30;99.90;;;;;;5061904;28;19924;-74
2023/03/17 07:25:54;;;;;;;;;;;8.30;99.90;;;;;;4991663;28;206675;-74
2023/03/17 07:28:20;;;;;;;;;;;8.40;99.90;;;;;;5059871;28;20420;-75
2023/03/17 07:30:47;;;;;;;;;;;8.50;99.90;;;;;;5002556;28;209568;-75
2023/03/17 07:33:13;;;;;;;;;;;8.60;99.90;;;;;;5081134;28;19928;-75
2023/03/17 07:35:39;;;;;;;;;;;8.60;99.90;;;;;;5032744;28;36687;-75
2023/03/17 07:38:05;;;;;;;;;;;8.70;99.90;;;;;;5072313;28;19947;-75
2023/03/17 07:40:31;;;;;;;;;;;8.70;99.90;;;;;;4992033;28;200226;-74
2023/03/17 07:42:58;;;;;;;;;;;8.80;99.90;;;;;;5039318;28;19932;-75
2023/03/17 07:45:24;;;;;;;;;;;9.00;99.90;;;;;;5012837;28;206498;-75
2023/03/17 07:47:50;;;;;;;;;;;9.10;99.90;;;;;;5047327;28;19936;-75
2023/03/17 07:50:17;;;;;;;;;;;9.10;99.90;;;;;;4994627;28;209591;-74
2023/03/17 07:52:43;;;;;;;;;;;9.20;99.90;;;;;;5051303;28;19939;-75
2023/03/17 07:55:12;;;;;;;;;;;9.20;99.90;;;;;;4999418;28;209280;-73
2023/03/17 07:57:38;;;;;;;;;;;9.30;99.90;;;;;;5074658;28;19928;-73
2023/03/17 08:00:08;;;;;;;;;;;9.30;99.90;;;;;;5037005;27;208556;-74
2023/03/17 08:02:34;;;;;;;;;;;9.30;99.90;;;;;;5072981;28;20275;-74
2023/03/17 08:05:01;;;;;;;;;;;9.30;99.90;;;;;;4988724;28;209350;-74
2023/03/17 08:07:29;;;;;;;;;;;9.40;99.90;;;;;;5050482;28;19935;-74
2023/03/17 08:09:56;;;;;;;;;;;9.40;99.90;;;;;;5005851;28;207536;-74
2023/03/17 08:12:22;;;;;;;;;;;9.50;99.90;;;;;;5052420;28;20408;-74
2023/03/17 08:14:49;;;;;;;;;;;9.70;99.90;;;;;;5001703;28;207042;-74
2023/03/17 08:17:14;;;;;;;;;;;9.60;99.90;;;;;;5083572;28;19992;-74
2023/03/17 08:19:41;;;;;;;;;;;9.70;99.90;;;;;;5038379;28;208835;-73
2023/03/17 08:22:07;;;;;;;;;;;9.70;99.90;;;;;;5075792;28;20305;-73
2023/03/17 08:24:33;;;;;;;;;;;9.70;99.90;;;;;;5010107;28;208989;-74
2023/03/17 08:26:59;;;;;;;;;;;9.70;99.90;;;;;;5072116;28;20436;-73
2023/03/17 08:29:25;;;;;;;;;;;9.70;99.90;;;;;;5006282;28;204816;-74
2023/03/17 08:31:51;;;;;;;;;;;9.80;99.90;;;;;;5058140;28;19920;-73
2023/03/17 08:34:16;;;;;;;;;;;9.80;99.90;;;;;;5016944;28;209393;-73
2023/03/17 08:36:42;;;;;;;;;;;9.90;99.90;;;;;;5047669;28;19929;-76
2023/03/17 08:39:09;;;;;;;;;;;9.90;99.90;;;;;;5009019;28;208383;-74
2023/03/17 08:41:36;;;;;;;;;;;10.00;99.90;;;;;;5059858;28;19928;-73
2023/03/17 08:44:02;;;;;;;;;;;10.10;99.90;;;;;;5002023;28;208706;-73
2023/03/17 08:46:29;;;;;;;;;;;10.20;99.90;;;;;;5037833;28;19932;-74
2023/03/17 08:48:56;;;;;;;;;;;10.20;99.90;;;;;;5004013;28;206515;-74
2023/03/17 08:51:23;;;;;;;;;;;10.40;99.90;;;;;;5073069;28;20414;-73
2023/03/17 08:53:50;;;;;;;;;;;10.40;99.90;;;;;;5015667;28;201128;-74
2023/03/17 08:56:16;;;;;;;;;;;10.50;99.90;;;;;;5052420;28;19920;-74
2023/03/17 08:58:42;;;;;;;;;;;10.50;99.90;;;;;;5005634;28;210004;-74
2023/03/17 09:01:09;;;;;;;;;;;10.80;99.90;;;;;;5032535;28;19920;-74
2023/03/17 09:03:35;;;;;;;;;;;11.70;99.90;;;;;;5044225;28;208454;-74
2023/03/17 09:06:04;;;;;;;;;;;12.60;99.90;;;;;;5018301;28;207502;-74
2023/03/17 09:08:31;;;;;;;;;;;13.20;98.40;;;;;;5074718;28;19935;-74
2023/03/17 09:10:57;;;;;;;;;;;13.90;98.80;;;;;;5028075;28;59751;-74
2023/03/17 09:13:23;;;;;;;;;;;13.90;98.00;;;;;;5077736;28;19927;-74
2023/03/17 09:15:49;;;;;;;;;;;13.40;98.10;;;;;;5009614;28;192695;-74
2023/03/17 09:18:15;;;;;;;;;;;13.10;98.40;;;;;;5081012;28;19924;-74
2023/03/17 09:20:41;;;;;;;;;;;13.30;99.00;;;;;;5013270;28;208365;-74
2023/03/17 09:23:08;;;;;;;;;;;13.50;98.40;;;;;;5061286;28;19921;-74
2023/03/17 09:25:34;;;;;;;;;;;13.30;98.10;;;;;;5006679;28;214872;-74
2023/03/17 09:28:00;;;;;;;;;;;13.40;98.30;;;;;;5073951;28;19937;-73
2023/03/17 09:30:26;;;;;;;;;;;13.60;98.20;;;;;;4993869;28;210166;-72
2023/03/17 09:32:52;;;;;;;;;;;13.70;98.10;;;;;;5061807;28;19924;-72
2023/03/17 09:35:19;;;;;;;;;;;13.70;98.00;;;;;;4988695;28;209383;-72
2023/03/17 09:37:46;;;;;;;;;;;13.90;97.70;;;;;;5064772;28;19920;-72
2023/03/17 09:40:15;;;;;;;;;;;14.10;97.90;;;;;;5023592;28;212761;-72
2023/03/17 09:42:51;;;;;;;;;;;14.50;97.20;;;;;;5062213;28;19940;-72
2023/03/17 09:45:17;;;;;;;;;;;14.90;96.90;;;;;;5013413;28;209204;-72
2023/03/17 09:47:51;;;;;;;;;;;15.80;97.00;;;;;;5080694;28;20343;-72
2023/03/17 09:50:21;;;;;;;;;;;16.20;95.50;;;;;;4998305;28;209128;-72
2023/03/17 09:52:47;;;;;;;;;;;16.20;95.80;;;;;;5059744;28;19924;-72
2023/03/17 09:55:21;;;;;;;;;;;17.00;95.00;;;;;;5023048;28;209626;-72
2023/03/17 09:57:49;;;;;;;;;;;17.40;94.20;;;;;;5076637;28;19931;-72
2023/03/17 10:00:17;;;;;;;;;;;17.40;94.30;;;;;;5009816;28;208716;-72
2023/03/17 10:02:44;;;;;;;;;;;17.80;93.80;;;;;;5080390;28;19923;-72
2023/03/17 10:05:16;;;;;;;;;;;18.10;93.50;;;;;;5010337;28;224532;-73
2023/03/17 10:07:50;;;;;;;;;;;18.30;93.50;;;;;;5076255;28;19928;-73
2023/03/17 10:10:19;;;;;;;;;;;18.30;93.30;;;;;;5008606;28;130792;-72
2023/03/17 10:13:05;;;;;;;;;;;18.50;93.50;;;;;;5059440;28;20011;-73
2023/03/17 10:15:40;;;;;;;;;;;18.70;93.00;;;;;;4994227;28;157696;-72
2023/03/17 10:18:08;;;;;;;;;;;19.50;92.60;;;;;;5065423;28;19920;-73
2023/03/17 10:20:36;;;;;;;;;;;19.60;92.70;;;;;;5018658;28;166163;-72
2023/03/17 10:23:05;;;;;;;;;;;20.20;92.10;;;;;;5085417;28;19921;-73
2023/03/17 10:25:33;;;;;;;;;;;20.30;92.30;;;;;;5013702;28;213587;-73
2023/03/17 10:28:06;;;;;;;;;;;20.80;92.90;;;;;;5058825;28;19924;-73
2023/03/17 10:30:33;;;;;;;;;;;21.40;93.10;;;;;;5023419;28;209464;-73
2023/03/17 10:33:00;;;;;;;;;;;21.90;93.00;;;;;;5064567;28;19924;-73
2023/03/17 10:35:26;;;;;;;;;;;22.20;92.90;;;;;;5019745;28;227924;-73
2023/03/17 10:37:52;;;;;;;;;;;22.60;90.40;;;;;;5067859;28;19927;-73
2023/03/17 10:40:20;;;;;;;;;;;22.40;91.60;;;;;;5002514;28;209183;-73
2023/03/17 10:42:47;;;;;;;;;;;22.20;91.10;;;;;;5062355;28;20129;-73
2023/03/17 10:45:16;;;;;;;;;;;21.90;91.80;;;;;;5005527;28;211735;-73
2023/03/17 10:47:48;;;;;;;;;;;22.40;91.50;;;;;;5056355;28;19928;-73
2023/03/17 10:50:15;;;;;;;;;;;21.90;89.90;;;;;;5009669;28;214525;-73
2023/03/17 10:52:41;;;;;;;;;;;21.30;90.80;;;;;;5064665;28;19939;-73
2023/03/17 10:55:09;;;;;;;;;;;20.90;91.30;;;;;;5021210;28;144001;-73
2023/03/17 10:57:36;;;;;;;;;;;21.10;91.40;;;;;;5062859;28;19921;-72
2023/03/17 11:00:03;;;;;;;;;;;21.10;91.10;;;;;;4991536;28;209145;-73
2023/03/17 11:02:34;;;;;;;;;;;20.50;91.10;;;;;;5051141;28;20012;-72
2023/03/17 11:05:08;;;;;;;;;;;19.70;91.40;;;;;;4982841;28;209442;-72
2023/03/17 11:07:39;;;;;;;;;;;19.20;91.70;;;;;;5058481;28;19929;-72
2023/03/17 11:10:22;;;;;;;;;;;18.30;92.80;;;;;;5020821;28;209020;-72
2023/03/17 11:12:53;;;;;;;;;;;17.90;92.90;;;;;;5084185;28;19924;-72
2023/03/17 11:15:21;;;;;;;;;;;17.80;93.50;;;;;;5027515;28;211565;-72
2023/03/17 11:17:55;;;;;;;;;;;18.10;94.00;;;;;;5076201;28;19927;-72
2023/03/17 11:20:26;;;;;;;;;;;18.30;93.70;;;;;;4998033;28;210550;-72
2023/03/17 11:23:03;;;;;;;;;;;18.80;93.40;;;;;;5062504;28;19932;-72
2023/03/17 11:25:31;;;;;;;;;;;19.20;93.00;;;;;;5013942;28;208540;-72
2023/03/17 11:28:16;;;;;;;;;;;19.30;92.60;;;;;;5058167;28;20322;-74
2023/03/17 11:30:42;;;;;;;;;;;19.60;92.40;;;;;;5014019;28;210003;-73
2023/03/17 11:33:27;;;;;;;;;;;19.70;92.30;;;;;;5059612;28;19970;-73
2023/03/17 11:35:55;;;;;;;;;;;20.00;92.50;;;;;;5024137;28;209184;-73
2023/03/17 11:38:27;;;;;;;;;;;20.40;92.30;;;;;;5082855;28;20335;-68
2023/03/17 11:41:08;;;;;;;;;;;20.90;92.80;;;;;;5000427;28;179251;-73
2023/03/17 11:43:34;;;;;;;;;;;21.30;92.30;;;;;;5045401;28;208350;-74
2023/03/17 11:46:00;;;;;;;;;;;21.40;91.80;;;;;;4982033;28;86326;-72
2023/03/17 11:48:31;;;;;;;;;;;21.40;91.40;;;;;;5081442;28;19929;-73
2023/03/17 11:51:05;;;;;;;;;;;21.50;92.10;;;;;;4987597;28;46603;-72
2023/03/17 11:53:44;;;;;;;;;;;21.50;91.60;;;;;;5054413;28;208218;-73
2023/03/17 11:56:20;;;;;;;;;;;21.00;91.20;;;;;;5047920;28;135765;-73
2023/03/17 11:58:52;;;;;;;;;;;21.10;91.50;;;;;;5016283;28;212415;-74
2023/03/17 12:01:26;;;;;;;;;;;21.20;91.60;;;;;;5019456;28;19920;-73
2023/03/17 12:04:08;;;;;;;;;;;21.30;91.50;;;;;;4979477;28;277515;-73
2023/03/17 12:06:37;;;;;;;;;;;21.30;91.50;;;;;;5029760;28;20268;-73
2023/03/17 12:09:22;;;;;;;;;;;21.30;91.90;;;;;;5007559;28;210064;-73
2023/03/17 12:11:49;;;;;;;;;;;21.70;91.40;;;;;;5063204;28;19962;-73
2023/03/17 12:14:17;;;;;;;;;;;21.50;91.50;;;;;;5013931;28;211656;-73
2023/03/17 12:16:49;;;;;;;;;;;21.00;91.60;;;;;;5042694;28;20558;-73
2023/03/17 12:19:18;;;;;;;;;;;20.60;91.90;;;;;;5008737;28;209208;-73
2023/03/17 12:21:51;;;;;;;;;;;20.10;92.00;;;;;;5051565;28;19964;-73
2023/03/17 12:24:30;;;;;;;;;;;19.70;92.30;;;;;;4998334;28;209064;-73
2023/03/17 12:26:58;;;;;;;;;;;19.40;92.70;;;;;;5054100;28;19927;-73
2023/03/17 12:29:36;;;;;;;;;;;19.40;93.00;;;;;;5005786;28;169383;-72
2023/03/17 12:32:07;;;;;;;;;;;19.80;92.90;;;;;;5053516;28;20368;-73
2023/03/17 12:35:03;;;;;;;;;;;19.80;92.90;;;;;;5015165;28;222037;-73
2023/03/17 12:37:29;;;;;;;;;;;19.70;92.90;;;;;;5050169;28;19924;-73
2023/03/17 12:40:05;;;;;;;;;;;19.20;93.10;;;;;;5019477;28;210257;-73
2023/03/17 12:42:37;;;;;;;;;;;18.80;93.30;;;;;;5062581;28;19925;-73
2023/03/17 12:45:03;;;;;;;;;;;18.70;93.60;;;;;;4984235;28;210832;-73
2023/03/17 12:47:35;;;;;;;;;;;18.50;94.00;;;;;;5062155;28;20400;-73
2023/03/17 12:50:04;;;;;;;;;;;18.50;93.90;;;;;;4982646;28;209583;-73
2023/03/17 12:52:42;;;;;;;;;;;18.40;93.70;;;;;;5049617;28;19931;-74
2023/03/17 12:55:12;;;;;;;;;;;18.20;94.20;;;;;;5006910;28;206380;-73
2023/03/17 12:57:40;;;;;;;;;;;18.20;94.40;;;;;;5056354;28;19931;-74
2023/03/17 13:00:15;;;;;;;;;;;18.40;94.20;;;;;;5013933;28;210501;-73
2023/03/17 13:02:44;;;;;;;;;;;18.50;94.10;;;;;;5065722;28;19931;-74
2023/03/17 13:05:15;;;;;;;;;;;18.70;94.10;;;;;;4984813;28;206632;-74
2023/03/17 13:07:47;;;;;;;;;;;18.90;94.20;;;;;;5063603;28;20404;-74
2023/03/17 13:10:39;;;;;;;;;;;19.10;93.80;;;;;;5021441;28;215540;-74
2023/03/17 13:13:09;;;;;;;;;;;19.30;93.00;;;;;;5078103;28;19924;-74
2023/03/17 13:15:36;;;;;;;;;;;19.30;93.20;;;;;;4985361;28;182968;-74
2023/03/17 13:18:11;;;;;;;;;;;19.20;93.30;;;;;;5080894;28;19924;-74
2023/03/17 13:20:39;;;;;;;;;;;19.30;93.40;;;;;;5004608;28;207081;-74
2023/03/17 13:23:12;;;;;;;;;;;19.30;93.70;;;;;;5077145;28;19928;-74
2023/03/17 13:25:38;;;;;;;;;;;19.50;93.90;;;;;;4994012;28;207982;-74
2023/03/17 13:28:13;;;;;;;;;;;19.40;93.30;;;;;;5059817;28;19932;-74
2023/03/17 13:30:39;;;;;;;;;;;19.10;93.80;;;;;;5007386;28;206454;-74
2023/03/17 13:33:08;;;;;;;;;;;18.70;93.90;;;;;;5080482;28;19924;-74
2023/03/17 13:35:46;;;;;;;;;;;18.60;94.20;;;;;;5009109;28;213103;-73
2023/03/17 13:38:31;;;;;;;;;;;18.50;94.40;;;;;;5079686;28;20385;-74
2023/03/17 13:41:15;;;;;;;;;;;18.40;94.80;;;;;;5034775;28;193571;-74
2023/03/17 13:44:00;;;;;;;;;;;18.00;94.20;;;;;;5008762;28;211197;-73
2023/03/17 13:46:38;;;;;;;;;;;17.70;94.70;;;;;;5092474;27;19932;-74
2023/03/17 13:49:17;;;;;;;;;;;17.60;95.20;;;;;;5027653;28;170507;-73
2023/03/17 13:51:48;;;;;;;;;;;17.70;95.10;;;;;;5085674;28;20437;-73
2023/03/17 13:54:27;;;;;;;;;;;17.90;95.50;;;;;;5032586;28;210141;-74
2023/03/17 13:56:54;;;;;;;;;;;18.00;94.80;;;;;;5064088;28;19932;-73
2023/03/17 13:59:20;;;;;;;;;;;18.00;94.60;;;;;;5020076;28;206531;-74
2023/03/17 14:01:51;;;;;;;;;;;17.90;94.70;;;;;;5065954;28;20464;-72
2023/03/17 14:04:25;;;;;;;;;;;17.80;94.70;;;;;;4977771;28;208764;-72
2023/03/17 14:06:53;;;;;;;;;;;17.80;95.20;;;;;;5059806;28;19931;-73
2023/03/17 14:09:22;;;;;;;;;;;17.80;94.80;;;;;;5019322;28;207294;-73
2023/03/17 14:11:49;;;;;;;;;;;17.90;94.80;;;;;;5079879;28;19920;-73
2023/03/17 14:14:21;;;;;;;;;;;17.60;94.80;;;;;;5017867;28;208293;-71
2023/03/17 14:16:59;;;;;;;;;;;17.50;95.00;;;;;;5054777;28;19991;-72
2023/03/17 14:19:26;;;;;;;;;;;17.30;95.30;;;;;;5019064;28;208479;-71
2023/03/17 14:21:53;;;;;;;;;;;17.10;95.00;;;;;;5056824;28;19924;-72
2023/03/17 14:24:23;;;;;;;;;;;16.90;95.50;;;;;;5003392;28;208796;-71